sensor_id;sensor_type;location;lat;lon;timestamp;pressure;altitude;pressure_sealevel;temperature;humidity
55271;BME280;41132;47.162;9.470;2023-04-25T00:01:20;96017.50;;;8.76;100.00
55271;BME280;41132;47.162;9.470;2023-04-25T00:03:47;96015.34;;;8.64;100.00
55271;BME280;41132;47.162;9.470;2023-04-25T00:06:12;96027.66;;;8.45;100.00
55271;BME280;41132;47.162;9.470;2023-04-25T00:08:38;96033.56;;;8.47;100.00
55271;BME280;41132;47.162;9.470;2023-04-25T00:11:03;96026.31;;;8.41;100.00
55271;BME280;41132;47.162;9.470;2023-04-25T00:13:29;96037.13;;;8.46;100.00
55271;BME280;41132;47.162;9.470;2023-04-25T00:15:54;96038.13;;;8.45;100.00
55271;BME280;41132;47.162;9.470;2023-04-25T00:18:21;96034.84;;;8.43;100.00
55271;BME280;41132;47.162;9.470;2023-04-25T00:20:47;96036.06;;;8.39;100.00
55271;BME280;41132;47.162;9.470;2023-04-25T00:23:13;96017.19;;;8.45;100.00
55271;BME280;41132;47.162;9.470;2023-04-25T00:25:49;96025.66;;;8.65;100.00
55271;BME280;41132;47.162;9.470;2023-04-25T00:28:15;96017.75;;;8.57;100.00
55271;BME280;41132;47.162;9.470;2023-04-25T00:30:43;96020.78;;;8.78;100.00
55271;BME280;41132;47.162;9.470;2023-04-25T00:33:09;96015.22;;;8.73;100.00
55271;BME280;41132;47.162;9.470;2023-04-25T00:35:35;95994.41;;;8.64;100.00
55271;BME280;41132;47.162;9.470;2023-04-25T00:38:00;95994.59;;;8.70;100.00
55271;BME280;41132;47.162;9.470;2023-04-25T00:40:26;96012.41;;;8.67;100.00
55271;BME280;41132;47.162;9.470;2023-04-25T00:42:52;96004.53;;;8.59;100.00
55271;BME280;41132;47.162;9.470;2023-04-25T00:45:18;95990.94;;;8.55;100.00
55271;BME280;41132;47.162;9.470;2023-04-25T00:47:43;96018.25;;;8.61;100.00
55271;BME280;41132;47.162;9.470;2023-04-25T00:50:10;96020.56;;;8.64;100.00
55271;BME280;41132;47.162;9.470;2023-04-25T00:52:37;96010.69;;;8.49;100.00
55271;BME280;41132;47.162;9.470;2023-04-25T00:55:03;96001.84;;;8.50;100.00
55271;BME280;41132;47.162;9.470;2023-04-25T00:57:29;95997.63;;;8.49;100.00
55271;BME280;41132;47.162;9.470;2023-04-25T00:59:55;95987.53;;;8.36;100.00
55271;BME280;41132;47.162;9.470;2023-04-25T01:02:20;96004.41;;;8.68;100.00
55271;BME280;41132;47.162;9.470;2023-04-25T01:04:47;96010.09;;;8.64;100.00
55271;BME280;41132;47.162;9.470;2023-04-25T01:07:14;96007.78;;;8.61;100.00
55271;BME280;41132;47.162;9.470;2023-04-25T01:09:40;96003.84;;;8.56;100.00
55271;BME280;41132;47.162;9.470;2023-04-25T01:12:06;95999.56;;;8.47;100.00
55271;BME280;41132;47.162;9.470;2023-04-25T01:14:31;95986.28;;;8.41;100.00
55271;BME280;41132;47.162;9.470;2023-04-25T01:16:59;95998.56;;;8.48;100.00
55271;BME280;41132;47.162;9.470;2023-04-25T01:19:25;96002.66;;;8.51;100.00
55271;BME280;41132;47.162;9.470;2023-04-25T01:21:50;95997.22;;;8.44;100.00
55271;BME280;41132;47.162;9.470;2023-04-25T01:24:16;95992.81;;;8.45;100.00
55271;BME280;41132;47.162;9.470;2023-04-25T01:26:42;95987.22;;;8.40;100.00
55271;BME280;41132;47.162;9.470;2023-04-25T01:29:18;96000.84;;;8.43;100.00
55271;BME280;41132;47.162;9.470;2023-04-25T01:31:45;95984.09;;;8.36;100.00
55271;BME280;41132;47.162;9.470;2023-04-25T01:34:11;95963.19;;;8.36;100.00
55271;BME280;41132;47.162;9.470;2023-04-25T01:36:37;95947.97;;;8.40;100.00
55271;BME280;41132;47.162;9.470;2023-04-25T01:39:02;95979.66;;;8.63;100.00
55271;BME280;41132;47.162;9.470;2023-04-25T01:41:28;95979.81;;;8.35;100.00
55271;BME280;41132;47.162;9.470;2023-04-25T01:43:54;95992.41;;;8.31;100.00
55271;BME280;41132;47.162;9.470;2023-04-25T01:46:20;95963.84;;;8.12;100.00
55271;BME280;41132;47.162;9.470;2023-04-25T01:48:45;95992.34;;;8.23;100.00
55271;BME280;41132;47.162;9.470;2023-04-25T01:51:11;95987.22;;;8.13;100.00
55271;BME280;41132;47.162;9.470;2023-04-25T01:53:37;95956.91;;;8.03;100.00
55271;BME280;41132;47.162;9.470;2023-04-25T01:56:03;95968.91;;;8.13;100.00
55271;BME280;41132;47.162;9.470;2023-04-25T01:58:28;95937.03;;;8.10;100.00
55271;BME280;41132;47.162;9.470;2023-04-25T02:00:54;95980.06;;;8.42;100.00
55271;BME280;41132;47.162;9.470;2023-04-25T02:03:19;95979.78;;;8.27;100.00
55271;BME280;41132;47.162;9.470;2023-04-25T02:05:45;95980.97;;;8.06;100.00
55271;BME280;41132;47.162;9.470;2023-04-25T02:08:10;95966.84;;;7.99;100.00
55271;BME280;41132;47.162;9.470;2023-04-25T02:10:36;95963.28;;;8.00;100.00
55271;BME280;41132;47.162;9.470;2023-04-25T02:13:01;95973.50;;;8.20;100.00
55271;BME280;41132;47.162;9.470;2023-04-25T02:15:27;95974.03;;;8.23;100.00
55271;BME280;41132;47.162;9.470;2023-04-25T02:17:52;95964.63;;;8.04;100.00
55271;BME280;41132;47.162;9.470;2023-04-25T02:20:20;95928.13;;;7.77;100.00
55271;BME280;41132;47.162;9.470;2023-04-25T02:22:46;95979.09;;;7.99;100.00
55271;BME280;41132;47.162;9.470;2023-04-25T02:25:12;95972.06;;;7.99;100.00
55271;BME280;41132;47.162;9.470;2023-04-25T02:27:38;95961.00;;;8.05;100.00
55271;BME280;41132;47.162;9.470;2023-04-25T02:30:04;95967.69;;;8.00;100.00
55271;BME280;41132;47.162;9.470;2023-04-25T02:32:31;95955.69;;;7.89;100.00
55271;BME280;41132;47.162;9.470;2023-04-25T02:34:57;95953.88;;;7.89;100.00
55271;BME280;41132;47.162;9.470;2023-04-25T02:37:25;95957.03;;;7.75;100.00
55271;BME280;41132;47.162;9.470;2023-04-25T02:39:50;95958.78;;;7.92;100.00
55271;BME280;41132;47.162;9.470;2023-04-25T02:42:15;95952.09;;;8.16;100.00
55271;BME280;41132;47.162;9.470;2023-04-25T02:44:41;95938.47;;;8.04;100.00
55271;BME280;41132;47.162;9.470;2023-04-25T02:47:06;95924.63;;;7.86;100.00
55271;BME280;41132;47.162;9.470;2023-04-25T02:49:31;95940.66;;;7.91;100.00
55271;BME280;41132;47.162;9.470;2023-04-25T02:51:57;95946.84;;;7.90;100.00
55271;BME280;41132;47.162;9.470;2023-04-25T02:54:22;95941.50;;;7.73;100.00
55271;BME280;41132;47.162;9.470;2023-04-25T02:56:47;95948.97;;;7.86;100.00
55271;BME280;41132;47.162;9.470;2023-04-25T02:59:13;95910.53;;;7.61;100.00
55271;BME280;41132;47.162;9.470;2023-04-25T03:01:38;95939.13;;;7.80;100.00
55271;BME280;41132;47.162;9.470;2023-04-25T03:04:04;95931.28;;;7.80;100.00
55271;BME280;41132;47.162;9.470;2023-04-25T03:06:29;95932.53;;;7.76;100.00
55271;BME280;41132;47.162;9.470;2023-04-25T03:08:56;95934.47;;;7.92;100.00
55271;BME280;41132;47.162;9.470;2023-04-25T03:11:21;95925.00;;;7.91;100.00
55271;BME280;41132;47.162;9.470;2023-04-25T03:13:46;95926.94;;;7.89;100.00
55271;BME280;41132;47.162;9.470;2023-04-25T03:16:12;95920.78;;;7.98;100.00
55271;BME280;41132;47.162;9.470;2023-04-25T03:18:37;95924.25;;;7.81;100.00
55271;BME280;41132;47.162;9.470;2023-04-25T03:21:03;95933.28;;;7.86;100.00
55271;BME280;41132;47.162;9.470;2023-04-25T03:23:28;95938.19;;;7.89;100.00
55271;BME280;41132;47.162;9.470;2023-04-25T03:25:53;95924.88;;;8.01;100.00
55271;BME280;41132;47.162;9.470;2023-04-25T03:28:19;95909.47;;;8.15;100.00
55271;BME280;41132;47.162;9.470;2023-04-25T03:30:45;95906.38;;;8.20;100.00
55271;BME280;41132;47.162;9.470;2023-04-25T03:33:10;95902.59;;;8.14;100.00
55271;BME280;41132;47.162;9.470;2023-04-25T03:35:35;95892.28;;;7.87;100.00
55271;BME280;41132;47.162;9.470;2023-04-25T03:38:01;95899.34;;;7.94;100.00
55271;BME280;41132;47.162;9.470;2023-04-25T03:40:26;95904.44;;;7.96;100.00
55271;BME280;41132;47.162;9.470;2023-04-25T03:42:51;95921.09;;;7.95;100.00
55271;BME280;41132;47.162;9.470;2023-04-25T03:45:17;95909.84;;;7.77;100.00
55271;BME280;41132;47.162;9.470;2023-04-25T03:47:42;95911.25;;;7.89;100.00
55271;BME280;41132;47.162;9.470;2023-04-25T03:50:08;95915.94;;;7.85;100.00
55271;BME280;41132;47.162;9.470;2023-04-25T03:52:33;95921.41;;;7.92;100.00
55271;BME280;41132;47.162;9.470;2023-04-25T03:54:58;95924.22;;;7.99;100.00
55271;BME280;41132;47.162;9.470;2023-04-25T03:57:24;95913.00;;;8.06;100.00
55271;BME280;41132;47.162;9.470;2023-04-25T03:59:49;95905.03;;;7.90;100.00
55271;BME280;41132;47.162;9.470;2023-04-25T04:02:15;95900.03;;;7.97;100.00
55271;BME280;41132;47.162;9.470;2023-04-25T04:04:40;95928.22;;;8.11;100.00
55271;BME280;41132;47.162;9.470;2023-04-25T04:07:05;95916.97;;;7.92;100.00
55271;BME280;41132;47.162;9.470;2023-04-25T04:09:31;95935.19;;;8.02;100.00
55271;BME280;41132;47.162;9.470;2023-04-25T04:11:56;95945.00;;;8.08;100.00
55271;BME280;41132;47.162;9.470;2023-04-25T04:14:21;95935.88;;;8.04;100.00
55271;BME280;41132;47.162;9.470;2023-04-25T04:16:47;95934.88;;;8.05;100.00
55271;BME280;41132;47.162;9.470;2023-04-25T04:19:12;95937.38;;;8.15;100.00
55271;BME280;41132;47.162;9.470;2023-04-25T04:21:38;95924.09;;;8.34;100.00
55271;BME280;41132;47.162;9.470;2023-04-25T04:24:03;95933.00;;;8.15;100.00
55271;BME280;41132;47.162;9.470;2023-04-25T04:26:29;95942.16;;;8.20;100.00
55271;BME280;41132;47.162;9.470;2023-04-25T04:28:54;95939.25;;;8.23;100.00
55271;BME280;41132;47.162;9.470;2023-04-25T04:31:21;95892.72;;;8.00;100.00
55271;BME280;41132;47.162;9.470;2023-04-25T04:33:46;95926.06;;;8.06;100.00
55271;BME280;41132;47.162;9.470;2023-04-25T04:36:12;95928.06;;;8.12;100.00
55271;BME280;41132;47.162;9.470;2023-04-25T04:38:38;95892.75;;;7.82;100.00
55271;BME280;41132;47.162;9.470;2023-04-25T04:41:03;95925.63;;;8.11;100.00
55271;BME280;41132;47.162;9.470;2023-04-25T04:43:29;95919.94;;;8.15;100.00
55271;BME280;41132;47.162;9.470;2023-04-25T04:45:55;95937.38;;;8.15;100.00
55271;BME280;41132;47.162;9.470;2023-04-25T04:48:21;95908.97;;;7.86;100.00
55271;BME280;41132;47.162;9.470;2023-04-25T04:50:47;95918.50;;;7.95;100.00
55271;BME280;41132;47.162;9.470;2023-04-25T04:53:13;95927.50;;;8.01;100.00
55271;BME280;41132;47.162;9.470;2023-04-25T04:55:38;95939.22;;;7.97;100.00
55271;BME280;41132;47.162;9.470;2023-04-25T04:58:04;95936.34;;;8.08;100.00
55271;BME280;41132;47.162;9.470;2023-04-25T05:00:29;95941.13;;;8.12;100.00
55271;BME280;41132;47.162;9.470;2023-04-25T05:02:55;95935.44;;;8.17;100.00
55271;BME280;41132;47.162;9.470;2023-04-25T05:05:21;95931.13;;;8.34;100.00
55271;BME280;41132;47.162;9.470;2023-04-25T05:07:46;95933.81;;;8.16;100.00
55271;BME280;41132;47.162;9.470;2023-04-25T05:10:12;95897.34;;;8.14;100.00
55271;BME280;41132;47.162;9.470;2023-04-25T05:12:37;95937.59;;;8.48;100.00
55271;BME280;41132;47.162;9.470;2023-04-25T05:15:03;95936.94;;;8.46;100.00
55271;BME280;41132;47.162;9.470;2023-04-25T05:17:28;95930.00;;;8.36;100.00
55271;BME280;41132;47.162;9.470;2023-04-25T05:19:54;95946.97;;;8.59;100.00
55271;BME280;41132;47.162;9.470;2023-04-25T05:22:19;95940.25;;;8.56;100.00
55271;BME280;41132;47.162;9.470;2023-04-25T05:24:44;95932.66;;;8.45;100.00
55271;BME280;41132;47.162;9.470;2023-04-25T05:27:10;95927.72;;;8.33;100.00
55271;BME280;41132;47.162;9.470;2023-04-25T05:29:35;95941.75;;;8.32;100.00
55271;BME280;41132;47.162;9.470;2023-04-25T05:32:01;95946.34;;;8.39;100.00
55271;BME280;41132;47.162;9.470;2023-04-25T05:34:27;95944.13;;;8.44;100.00
55271;BME280;41132;47.162;9.470;2023-04-25T05:36:52;95958.56;;;8.30;100.00
55271;BME280;41132;47.162;9.470;2023-04-25T05:39:17;95913.84;;;8.15;100.00
55271;BME280;41132;47.162;9.470;2023-04-25T05:41:43;95959.00;;;8.51;100.00
55271;BME280;41132;47.162;9.470;2023-04-25T05:44:09;95952.78;;;8.44;100.00
55271;BME280;41132;47.162;9.470;2023-04-25T05:46:34;95928.25;;;8.19;100.00
55271;BME280;41132;47.162;9.470;2023-04-25T05:49:00;95930.31;;;8.33;100.00
55271;BME280;41132;47.162;9.470;2023-04-25T05:51:25;95955.91;;;8.48;100.00
55271;BME280;41132;47.162;9.470;2023-04-25T05:53:51;95920.50;;;8.35;100.00
55271;BME280;41132;47.162;9.470;2023-04-25T05:56:16;95964.69;;;8.73;100.00
55271;BME280;41132;47.162;9.470;2023-04-25T05:58:41;95958.50;;;8.82;100.00
55271;BME280;41132;47.162;9.470;2023-04-25T06:01:07;95957.97;;;8.70;100.00
55271;BME280;41132;47.162;9.470;2023-04-25T06:03:32;95948.38;;;8.87;100.00
55271;BME280;41132;47.162;9.470;2023-04-25T06:05:58;95918.53;;;8.64;100.00
55271;BME280;41132;47.162;9.470;2023-04-25T06:08:23;95953.28;;;8.82;100.00
55271;BME280;41132;47.162;9.470;2023-04-25T06:10:48;95924.59;;;8.64;100.00
55271;BME280;41132;47.162;9.470;2023-04-25T06:13:14;95952.94;;;8.85;100.00
55271;BME280;41132;47.162;9.470;2023-04-25T06:15:40;95943.97;;;8.88;100.00
55271;BME280;41132;47.162;9.470;2023-04-25T06:18:06;95944.28;;;8.85;100.00
55271;BME280;41132;47.162;9.470;2023-04-25T06:20:31;95952.00;;;8.94;100.00
55271;BME280;41132;47.162;9.470;2023-04-25T06:22:57;95936.13;;;8.88;100.00
55271;BME280;41132;47.162;9.470;2023-04-25T06:25:22;95952.69;;;9.05;100.00
55271;BME280;41132;47.162;9.470;2023-04-25T06:27:47;95913.44;;;9.05;100.00
55271;BME280;41132;47.162;9.470;2023-04-25T06:30:13;95920.03;;;9.25;100.00
55271;BME280;41132;47.162;9.470;2023-04-25T06:32:38;95908.19;;;9.13;100.00
55271;BME280;41132;47.162;9.470;2023-04-25T06:35:04;95922.78;;;9.24;100.00
55271;BME280;41132;47.162;9.470;2023-04-25T06:37:30;95919.69;;;9.28;100.00
55271;BME280;41132;47.162;9.470;2023-04-25T06:39:55;95882.50;;;9.00;100.00
55271;BME280;41132;47.162;9.470;2023-04-25T06:42:21;95897.09;;;9.19;100.00
55271;BME280;41132;47.162;9.470;2023-04-25T06:44:46;95897.94;;;9.28;100.00
55271;BME280;41132;47.162;9.470;2023-04-25T06:47:12;95899.41;;;9.30;100.00
55271;BME280;41132;47.162;9.470;2023-04-25T06:49:37;95900.38;;;9.37;100.00
55271;BME280;41132;47.162;9.470;2023-04-25T06:52:03;95878.97;;;9.34;100.00
55271;BME280;41132;47.162;9.470;2023-04-25T06:54:28;95902.72;;;9.65;100.00
55271;BME280;41132;47.162;9.470;2023-04-25T06:56:55;95880.72;;;9.82;100.00
55271;BME280;41132;47.162;9.470;2023-04-25T06:59:22;95896.56;;;10.06;100.00
55271;BME280;41132;47.162;9.470;2023-04-25T07:01:47;95860.22;;;9.94;100.00
55271;BME280;41132;47.162;9.470;2023-04-25T07:04:13;95890.88;;;10.02;100.00
55271;BME280;41132;47.162;9.470;2023-04-25T07:06:38;95862.75;;;9.63;100.00
55271;BME280;41132;47.162;9.470;2023-04-25T07:09:08;95848.97;;;9.45;100.00
55271;BME280;41132;47.162;9.470;2023-04-25T07:11:34;95869.59;;;9.56;100.00
55271;BME280;41132;47.162;9.470;2023-04-25T07:14:00;95879.44;;;9.46;100.00
55271;BME280;41132;47.162;9.470;2023-04-25T07:16:25;95876.84;;;9.54;100.00
55271;BME280;41132;47.162;9.470;2023-04-25T07:18:51;95854.72;;;9.56;100.00
55271;BME280;41132;47.162;9.470;2023-04-25T07:21:16;95874.81;;;9.80;100.00
55271;BME280;41132;47.162;9.470;2023-04-25T07:23:41;95874.34;;;9.60;100.00
55271;BME280;41132;47.162;9.470;2023-04-25T07:26:07;95888.13;;;9.71;100.00
55271;BME280;41132;47.162;9.470;2023-04-25T07:28:33;95883.03;;;9.77;100.00
55271;BME280;41132;47.162;9.470;2023-04-25T07:30:58;95848.66;;;9.64;100.00
55271;BME280;41132;47.162;9.470;2023-04-25T07:33:23;95886.97;;;9.81;100.00
55271;BME280;41132;47.162;9.470;2023-04-25T07:35:49;95886.66;;;9.52;100.00
55271;BME280;41132;47.162;9.470;2023-04-25T07:38:15;95882.22;;;9.28;100.00
55271;BME280;41132;47.162;9.470;2023-04-25T07:40:40;95888.94;;;9.30;100.00
55271;BME280;41132;47.162;9.470;2023-04-25T07:43:06;95889.25;;;9.44;100.00
55271;BME280;41132;47.162;9.470;2023-04-25T07:45:31;95888.13;;;9.46;100.00
55271;BME280;41132;47.162;9.470;2023-04-25T07:47:57;95883.03;;;9.53;100.00
55271;BME280;41132;47.162;9.470;2023-04-25T07:50:22;95902.22;;;9.70;100.00
55271;BME280;41132;47.162;9.470;2023-04-25T07:52:48;95907.25;;;9.71;100.00
55271;BME280;41132;47.162;9.470;2023-04-25T07:55:13;95921.84;;;9.90;99.75
55271;BME280;41132;47.162;9.470;2023-04-25T07:57:38;95914.63;;;9.84;94.43
55271;BME280;41132;47.162;9.470;2023-04-25T08:00:04;95928.06;;;9.89;94.67
55271;BME280;41132;47.162;9.470;2023-04-25T08:02:34;95926.41;;;9.96;88.39
55271;BME280;41132;47.162;9.470;2023-04-25T08:04:59;95920.03;;;9.91;90.54
55271;BME280;41132;47.162;9.470;2023-04-25T08:07:24;95933.28;;;10.06;90.46
55271;BME280;41132;47.162;9.470;2023-04-25T08:09:50;95928.53;;;10.01;96.96
55271;BME280;41132;47.162;9.470;2023-04-25T08:12:15;95943.28;;;10.02;88.47
55271;BME280;41132;47.162;9.470;2023-04-25T08:14:41;95937.56;;;9.90;86.83
55271;BME280;41132;47.162;9.470;2023-04-25T08:17:06;95950.16;;;10.03;89.23
55271;BME280;41132;47.162;9.470;2023-04-25T08:19:31;95948.53;;;9.94;86.08
55271;BME280;41132;47.162;9.470;2023-04-25T08:21:57;95965.75;;;9.88;89.72
55271;BME280;41132;47.162;9.470;2023-04-25T08:24:23;95962.78;;;9.83;94.97
55271;BME280;41132;47.162;9.470;2023-04-25T08:26:48;95940.69;;;9.61;91.64
55271;BME280;41132;47.162;9.470;2023-04-25T08:29:14;95945.56;;;9.56;100.00
55271;BME280;41132;47.162;9.470;2023-04-25T08:31:39;95970.16;;;9.63;100.00
55271;BME280;41132;47.162;9.470;2023-04-25T08:34:05;95979.97;;;9.53;100.00
55271;BME280;41132;47.162;9.470;2023-04-25T08:36:31;95969.16;;;9.48;100.00
55271;BME280;41132;47.162;9.470;2023-04-25T08:38:58;95994.00;;;9.27;100.00
55271;BME280;41132;47.162;9.470;2023-04-25T08:41:24;96019.84;;;9.30;100.00
55271;BME280;41132;47.162;9.470;2023-04-25T08:43:51;95999.50;;;9.08;100.00
55271;BME280;41132;47.162;9.470;2023-04-25T08:46:19;96023.44;;;9.21;100.00
55271;BME280;41132;47.162;9.470;2023-04-25T08:48:45;96028.94;;;9.02;100.00
55271;BME280;41132;47.162;9.470;2023-04-25T08:51:21;96001.19;;;8.83;100.00
55271;BME280;41132;47.162;9.470;2023-04-25T08:53:51;96019.38;;;8.92;100.00
55271;BME280;41132;47.162;9.470;2023-04-25T08:56:17;96016.47;;;8.95;100.00
55271;BME280;41132;47.162;9.470;2023-04-25T08:58:43;96036.66;;;9.11;100.00
55271;BME280;41132;47.162;9.470;2023-04-25T09:01:11;96041.38;;;9.08;100.00
55271;BME280;41132;47.162;9.470;2023-04-25T09:03:36;96048.00;;;9.20;100.00
55271;BME280;41132;47.162;9.470;2023-04-25T09:06:02;96044.53;;;9.19;100.00
55271;BME280;41132;47.162;9.470;2023-04-25T09:08:28;96048.81;;;9.20;100.00
55271;BME280;41132;47.162;9.470;2023-04-25T09:10:53;96054.03;;;9.20;100.00
55271;BME280;41132;47.162;9.470;2023-04-25T09:13:27;96052.38;;;9.19;100.00
55271;BME280;41132;47.162;9.470;2023-04-25T09:15:54;96065.22;;;9.39;100.00
55271;BME280;41132;47.162;9.470;2023-04-25T09:18:25;96054.09;;;9.37;100.00
55271;BME280;41132;47.162;9.470;2023-04-25T09:20:54;96072.84;;;9.67;100.00
55271;BME280;41132;47.162;9.470;2023-04-25T09:23:21;96076.16;;;9.85;100.00
55271;BME280;41132;47.162;9.470;2023-04-25T09:25:52;96074.69;;;9.91;100.00
55271;BME280;41132;47.162;9.470;2023-04-25T09:28:25;96071.75;;;9.94;100.00
55271;BME280;41132;47.162;9.470;2023-04-25T09:30:55;96096.47;;;9.91;100.00
55271;BME280;41132;47.162;9.470;2023-04-25T09:33:32;96091.25;;;9.91;100.00
55271;BME280;41132;47.162;9.470;2023-04-25T09:36:06;96083.09;;;10.11;100.00
55271;BME280;41132;47.162;9.470;2023-04-25T09:38:40;96083.44;;;10.57;100.00
55271;BME280;41132;47.162;9.470;2023-04-25T09:41:07;96078.63;;;12.03;97.71
55271;BME280;41132;47.162;9.470;2023-04-25T09:43:33;96086.25;;;13.93;89.09
55271;BME280;41132;47.162;9.470;2023-04-25T09:45:58;96067.63;;;14.44;81.87
55271;BME280;41132;47.162;9.470;2023-04-25T09:48:26;96085.84;;;15.10;71.39
55271;BME280;41132;47.162;9.470;2023-04-25T09:51:11;96069.81;;;14.34;68.11
55271;BME280;41132;47.162;9.470;2023-04-25T09:53:40;96076.81;;;14.98;79.06
55271;BME280;41132;47.162;9.470;2023-04-25T09:56:07;96082.75;;;14.29;63.36
55271;BME280;41132;47.162;9.470;2023-04-25T09:58:34;96056.50;;;14.70;69.67
55271;BME280;41132;47.162;9.470;2023-04-25T10:01:05;96072.44;;;15.53;62.38
55271;BME280;41132;47.162;9.470;2023-04-25T10:03:32;96070.56;;;15.89;63.86
55271;BME280;41132;47.162;9.470;2023-04-25T10:06:00;96069.31;;;15.36;60.95
55271;BME280;41132;47.162;9.470;2023-04-25T10:08:31;96051.63;;;14.67;61.19
55271;BME280;41132;47.162;9.470;2023-04-25T10:11:00;96059.44;;;14.82;66.35
55271;BME280;41132;47.162;9.470;2023-04-25T10:13:27;96072.56;;;14.97;61.36
55271;BME280;41132;47.162;9.470;2023-04-25T10:15:53;96066.50;;;15.10;61.09
55271;BME280;41132;47.162;9.470;2023-04-25T10:18:20;96066.88;;;15.00;68.46
55271;BME280;41132;47.162;9.470;2023-04-25T10:20:45;96077.59;;;14.64;61.11
55271;BME280;41132;47.162;9.470;2023-04-25T10:23:14;96072.09;;;13.79;66.33
55271;BME280;41132;47.162;9.470;2023-04-25T10:25:41;96078.06;;;13.22;80.74
55271;BME280;41132;47.162;9.470;2023-04-25T10:28:06;96073.31;;;13.02;83.52
55271;BME280;41132;47.162;9.470;2023-04-25T10:30:32;96077.91;;;12.70;77.68
55271;BME280;41132;47.162;9.470;2023-04-25T10:32:58;96075.88;;;11.97;85.07
55271;BME280;41132;47.162;9.470;2023-04-25T10:35:26;96084.75;;;11.96;88.87
55271;BME280;41132;47.162;9.470;2023-04-25T10:40:24;96086.31;;;11.74;90.07
55271;BME280;41132;47.162;9.470;2023-04-25T10:42:52;96089.28;;;11.39;94.13
55271;BME280;41132;47.162;9.470;2023-04-25T10:45:18;96093.59;;;11.24;93.67
55271;BME280;41132;47.162;9.470;2023-04-25T10:47:45;96096.28;;;11.16;100.00
55271;BME280;41132;47.162;9.470;2023-04-25T10:50:10;96089.31;;;10.83;98.35
55271;BME280;41132;47.162;9.470;2023-04-25T10:52:38;96071.59;;;10.85;100.00
55271;BME280;41132;47.162;9.470;2023-04-25T10:55:04;96089.09;;;11.01;100.00
55271;BME280;41132;47.162;9.470;2023-04-25T11:00:10;96097.66;;;10.87;100.00
55271;BME280;41132;47.162;9.470;2023-04-25T11:02:38;96100.94;;;10.89;100.00
55271;BME280;41132;47.162;9.470;2023-04-25T11:05:09;96105.88;;;10.84;100.00
55271;BME280;41132;47.162;9.470;2023-04-25T11:07:52;96121.63;;;10.76;100.00
55271;BME280;41132;47.162;9.470;2023-04-25T11:10:19;96114.91;;;10.57;100.00
55271;BME280;41132;47.162;9.470;2023-04-25T11:12:46;96112.78;;;10.44;100.00
55271;BME280;41132;47.162;9.470;2023-04-25T11:15:12;96122.47;;;10.43;100.00
55271;BME280;41132;47.162;9.470;2023-04-25T11:17:38;96128.03;;;10.40;100.00
55271;BME280;41132;47.162;9.470;2023-04-25T11:20:06;96127.72;;;10.43;100.00
55271;BME280;41132;47.162;9.470;2023-04-25T11:22:34;96135.38;;;10.29;100.00
55271;BME280;41132;47.162;9.470;2023-04-25T11:25:05;96132.09;;;10.27;100.00
55271;BME280;41132;47.162;9.470;2023-04-25T11:27:30;96128.22;;;10.47;100.00
55271;BME280;41132;47.162;9.470;2023-04-25T11:29:56;96097.06;;;10.36;100.00
55271;BME280;41132;47.162;9.470;2023-04-25T11:32:23;96111.97;;;10.52;100.00
55271;BME280;41132;47.162;9.470;2023-04-25T11:34:48;96126.06;;;10.59;100.00
55271;BME280;41132;47.162;9.470;2023-04-25T11:37:14;96121.94;;;10.81;100.00
55271;BME280;41132;47.162;9.470;2023-04-25T11:39:44;96106.53;;;10.86;100.00
55271;BME280;41132;47.162;9.470;2023-04-25T11:42:10;96117.28;;;11.07;100.00
55271;BME280;41132;47.162;9.470;2023-04-25T11:44:38;96114.38;;;11.50;99.95
55271;BME280;41132;47.162;9.470;2023-04-25T11:47:03;96120.31;;;11.83;100.00
55271;BME280;41132;47.162;9.470;2023-04-25T11:49:31;96107.16;;;11.83;100.00
55271;BME280;41132;47.162;9.470;2023-04-25T11:51:57;96108.75;;;11.61;100.00
55271;BME280;41132;47.162;9.470;2023-04-25T11:54:23;96076.75;;;11.10;93.91
55271;BME280;41132;47.162;9.470;2023-04-25T11:56:48;96132.19;;;11.23;91.96
55271;BME280;41132;47.162;9.470;2023-04-25T11:59:14;96112.03;;;11.16;90.56
55271;BME280;41132;47.162;9.470;2023-04-25T12:01:41;96125.97;;;11.24;83.01
55271;BME280;41132;47.162;9.470;2023-04-25T12:04:20;96125.94;;;11.33;86.58
55271;BME280;41132;47.162;9.470;2023-04-25T12:06:47;96133.03;;;11.16;96.64
55271;BME280;41132;47.162;9.470;2023-04-25T12:09:15;96135.69;;;11.07;92.51
55271;BME280;41132;47.162;9.470;2023-04-25T12:11:48;96137.84;;;11.04;95.45
55271;BME280;41132;47.162;9.470;2023-04-25T12:14:30;96138.16;;;11.01;96.96
55271;BME280;41132;47.162;9.470;2023-04-25T12:16:57;96136.50;;;11.16;98.39
55271;BME280;41132;47.162;9.470;2023-04-25T12:19:24;96151.69;;;11.37;92.06
55271;BME280;41132;47.162;9.470;2023-04-25T12:21:50;96128.31;;;11.50;87.75
55271;BME280;41132;47.162;9.470;2023-04-25T12:26:49;96142.31;;;11.90;93.17
55271;BME280;41132;47.162;9.470;2023-04-25T12:29:25;96137.13;;;11.74;85.91
55271;BME280;41132;47.162;9.470;2023-04-25T12:31:52;96137.06;;;11.90;93.03
55271;BME280;41132;47.162;9.470;2023-04-25T12:34:18;96136.13;;;11.75;81.56
55271;BME280;41132;47.162;9.470;2023-04-25T12:36:44;96138.25;;;11.40;86.22
55271;BME280;41132;47.162;9.470;2023-04-25T12:39:23;96144.47;;;11.39;88.76
55271;BME280;41132;47.162;9.470;2023-04-25T12:41:52;96134.97;;;11.30;83.28
55271;BME280;41132;47.162;9.470;2023-04-25T12:44:19;96155.69;;;11.64;81.68
55271;BME280;41132;47.162;9.470;2023-04-25T12:46:44;96131.59;;;11.61;77.15
55271;BME280;41132;47.162;9.470;2023-04-25T12:49:10;96138.75;;;11.36;74.66
55271;BME280;41132;47.162;9.470;2023-04-25T12:51:36;96141.19;;;11.37;79.17
55271;BME280;41132;47.162;9.470;2023-04-25T12:54:03;96132.94;;;11.48;82.77
55271;BME280;41132;47.162;9.470;2023-04-25T12:56:30;96117.06;;;11.34;82.52
55271;BME280;41132;47.162;9.470;2023-04-25T12:58:55;96142.19;;;11.28;78.56
55271;BME280;41132;47.162;9.470;2023-04-25T13:01:21;96145.91;;;11.50;85.21
55271;BME280;41132;47.162;9.470;2023-04-25T13:03:47;96140.16;;;11.55;81.15